sensor_id;sensor_type;location;lat;lon;timestamp;temperature;humidity
4934;DHT22;2482;49.154;8.254;2023-07-13T00:02:00;18.30;99.90
4934;DHT22;2482;49.154;8.254;2023-07-13T00:04:28;18.10;99.90
4934;DHT22;2482;49.154;8.254;2023-07-13T00:06:57;18.00;99.90
4934;DHT22;2482;49.154;8.254;2023-07-13T00:09:24;17.90;99.90
4934;DHT22;2482;49.154;8.254;2023-07-13T00:11:53;18.00;99.90
4934;DHT22;2482;49.154;8.254;2023-07-13T00:14:23;17.90;99.90
4934;DHT22;2482;49.154;8.254;2023-07-13T00:16:52;18.00;99.90
4934;DHT22;2482;49.154;8.254;2023-07-13T00:19:20;17.90;99.90
4934;DHT22;2482;49.154;8.254;2023-07-13T00:21:48;17.80;99.90
4934;DHT22;2482;49.154;8.254;2023-07-13T00:24:16;17.90;99.90
4934;DHT22;2482;49.154;8.254;2023-07-13T00:26:50;17.90;99.90
4934;DHT22;2482;49.154;8.254;2023-07-13T00:29:17;17.90;99.90
4934;DHT22;2482;49.154;8.254;2023-07-13T00:31:44;17.90;99.90
4934;DHT22;2482;49.154;8.254;2023-07-13T00:34:12;17.90;99.90
4934;DHT22;2482;49.154;8.254;2023-07-13T00:36:39;17.80;99.90
4934;DHT22;2482;49.154;8.254;2023-07-13T00:39:07;17.90;99.90
4934;DHT22;2482;49.154;8.254;2023-07-13T00:41:34;18.00;99.90
4934;DHT22;2482;49.154;8.254;2023-07-13T00:44:02;17.90;99.90
4934;DHT22;2482;49.154;8.254;2023-07-13T00:46:32;17.80;99.90
4934;DHT22;2482;49.154;8.254;2023-07-13T00:49:02;17.80;99.90
4934;DHT22;2482;49.154;8.254;2023-07-13T00:54:18;17.60;99.90
4934;DHT22;2482;49.154;8.254;2023-07-13T00:56:51;17.50;99.90
4934;DHT22;2482;49.154;8.254;2023-07-13T00:59:21;17.40;99.90
4934;DHT22;2482;49.154;8.254;2023-07-13T01:01:49;17.40;99.90
4934;DHT22;2482;49.154;8.254;2023-07-13T01:04:17;16.90;99.90
4934;DHT22;2482;49.154;8.254;2023-07-13T01:06:45;16.60;99.90
4934;DHT22;2482;49.154;8.254;2023-07-13T01:09:14;16.80;99.90
4934;DHT22;2482;49.154;8.254;2023-07-13T01:11:42;17.00;99.90
4934;DHT22;2482;49.154;8.254;2023-07-13T01:14:11;16.80;99.90
4934;DHT22;2482;49.154;8.254;2023-07-13T01:16:40;17.00;99.90
4934;DHT22;2482;49.154;8.254;2023-07-13T01:22:12;17.00;99.90
4934;DHT22;2482;49.154;8.254;2023-07-13T01:24:43;17.20;99.90
4934;DHT22;2482;49.154;8.254;2023-07-13T01:27:15;17.20;99.90
4934;DHT22;2482;49.154;8.254;2023-07-13T01:29:44;17.20;99.90
4934;DHT22;2482;49.154;8.254;2023-07-13T01:32:17;17.20;99.90
4934;DHT22;2482;49.154;8.254;2023-07-13T01:34:53;17.20;99.90
4934;DHT22;2482;49.154;8.254;2023-07-13T01:37:23;17.20;99.90
4934;DHT22;2482;49.154;8.254;2023-07-13T01:39:51;17.10;99.90
4934;DHT22;2482;49.154;8.254;2023-07-13T01:42:18;17.00;99.90
4934;DHT22;2482;49.154;8.254;2023-07-13T01:44:45;17.00;99.90
4934;DHT22;2482;49.154;8.254;2023-07-13T01:47:12;16.90;99.90
4934;DHT22;2482;49.154;8.254;2023-07-13T01:49:39;16.90;99.90
4934;DHT22;2482;49.154;8.254;2023-07-13T01:52:07;16.80;99.90
4934;DHT22;2482;49.154;8.254;2023-07-13T01:54:34;16.60;99.90
4934;DHT22;2482;49.154;8.254;2023-07-13T01:57:01;16.70;99.90
4934;DHT22;2482;49.154;8.254;2023-07-13T01:59:29;16.60;99.90
4934;DHT22;2482;49.154;8.254;2023-07-13T02:01:56;16.10;99.90
4934;DHT22;2482;49.154;8.254;2023-07-13T02:04:24;16.10;99.90
4934;DHT22;2482;49.154;8.254;2023-07-13T02:06:51;15.80;99.90
4934;DHT22;2482;49.154;8.254;2023-07-13T02:09:18;15.50;99.90
4934;DHT22;2482;49.154;8.254;2023-07-13T02:11:45;15.40;99.90
4934;DHT22;2482;49.154;8.254;2023-07-13T02:14:12;15.30;99.90
4934;DHT22;2482;49.154;8.254;2023-07-13T02:16:39;15.50;99.90
4934;DHT22;2482;49.154;8.254;2023-07-13T02:19:06;15.70;99.90
4934;DHT22;2482;49.154;8.254;2023-07-13T02:21:33;15.90;99.90
4934;DHT22;2482;49.154;8.254;2023-07-13T02:24:01;15.90;99.90
4934;DHT22;2482;49.154;8.254;2023-07-13T02:26:28;16.10;99.90
4934;DHT22;2482;49.154;8.254;2023-07-13T02:28:55;16.00;99.90
4934;DHT22;2482;49.154;8.254;2023-07-13T02:31:22;15.70;99.90
4934;DHT22;2482;49.154;8.254;2023-07-13T02:33:49;15.30;99.90
4934;DHT22;2482;49.154;8.254;2023-07-13T02:36:16;15.00;99.90
4934;DHT22;2482;49.154;8.254;2023-07-13T02:38:45;15.00;99.90
4934;DHT22;2482;49.154;8.254;2023-07-13T02:41:12;15.10;99.90
4934;DHT22;2482;49.154;8.254;2023-07-13T02:43:40;14.90;99.90
4934;DHT22;2482;49.154;8.254;2023-07-13T02:46:07;14.70;99.90
4934;DHT22;2482;49.154;8.254;2023-07-13T02:48:36;14.70;99.90
4934;DHT22;2482;49.154;8.254;2023-07-13T02:51:04;14.40;99.90
4934;DHT22;2482;49.154;8.254;2023-07-13T02:53:31;13.90;99.90
4934;DHT22;2482;49.154;8.254;2023-07-13T02:55:59;14.10;99.90
4934;DHT22;2482;49.154;8.254;2023-07-13T02:58:26;14.10;99.90
4934;DHT22;2482;49.154;8.254;2023-07-13T03:00:53;14.00;99.90
4934;DHT22;2482;49.154;8.254;2023-07-13T03:03:22;14.10;99.90
4934;DHT22;2482;49.154;8.254;2023-07-13T03:05:59;14.10;99.90
4934;DHT22;2482;49.154;8.254;2023-07-13T03:08:26;14.10;99.90
4934;DHT22;2482;49.154;8.254;2023-07-13T03:11:05;13.90;99.90
4934;DHT22;2482;49.154;8.254;2023-07-13T03:13:35;14.10;99.90
4934;DHT22;2482;49.154;8.254;2023-07-13T03:16:02;14.30;99.90
4934;DHT22;2482;49.154;8.254;2023-07-13T03:18:29;14.50;99.90
4934;DHT22;2482;49.154;8.254;2023-07-13T03:20:56;14.70;99.90
4934;DHT22;2482;49.154;8.254;2023-07-13T03:23:23;14.40;99.90
4934;DHT22;2482;49.154;8.254;2023-07-13T03:26:05;14.20;99.90
4934;DHT22;2482;49.154;8.254;2023-07-13T03:28:33;14.30;99.90
4934;DHT22;2482;49.154;8.254;2023-07-13T03:31:01;14.50;99.90
4934;DHT22;2482;49.154;8.254;2023-07-13T03:33:33;14.60;99.90
4934;DHT22;2482;49.154;8.254;2023-07-13T03:36:01;14.50;99.90
4934;DHT22;2482;49.154;8.254;2023-07-13T03:38:29;14.60;99.90
4934;DHT22;2482;49.154;8.254;2023-07-13T03:40:57;14.60;99.90
4934;DHT22;2482;49.154;8.254;2023-07-13T03:43:23;14.90;99.90
4934;DHT22;2482;49.154;8.254;2023-07-13T03:45:51;15.10;99.90
4934;DHT22;2482;49.154;8.254;2023-07-13T03:48:18;15.70;99.90
4934;DHT22;2482;49.154;8.254;2023-07-13T03:50:45;15.70;99.90
4934;DHT22;2482;49.154;8.254;2023-07-13T03:53:14;15.80;99.90
4934;DHT22;2482;49.154;8.254;2023-07-13T03:55:41;15.70;99.90
4934;DHT22;2482;49.154;8.254;2023-07-13T03:58:34;15.80;99.90
4934;DHT22;2482;49.154;8.254;2023-07-13T04:01:04;16.20;99.90
4934;DHT22;2482;49.154;8.254;2023-07-13T04:03:33;16.10;99.90
4934;DHT22;2482;49.154;8.254;2023-07-13T04:06:01;15.60;99.90
4934;DHT22;2482;49.154;8.254;2023-07-13T04:08:31;15.20;99.90
4934;DHT22;2482;49.154;8.254;2023-07-13T04:11:03;14.80;99.90
4934;DHT22;2482;49.154;8.254;2023-07-13T04:13:31;14.80;99.90
4934;DHT22;2482;49.154;8.254;2023-07-13T04:15:58;14.80;99.90
4934;DHT22;2482;49.154;8.254;2023-07-13T04:18:25;14.90;99.90
4934;DHT22;2482;49.154;8.254;2023-07-13T04:20:52;15.00;99.90
4934;DHT22;2482;49.154;8.254;2023-07-13T04:23:19;15.00;99.90
4934;DHT22;2482;49.154;8.254;2023-07-13T04:25:48;15.00;99.90
4934;DHT22;2482;49.154;8.254;2023-07-13T04:28:16;15.20;99.90
4934;DHT22;2482;49.154;8.254;2023-07-13T04:30:45;15.40;99.90
4934;DHT22;2482;49.154;8.254;2023-07-13T04:33:12;15.90;99.90
4934;DHT22;2482;49.154;8.254;2023-07-13T04:35:39;16.10;99.90
4934;DHT22;2482;49.154;8.254;2023-07-13T04:38:06;16.40;99.90
4934;DHT22;2482;49.154;8.254;2023-07-13T04:40:33;16.40;99.90
4934;DHT22;2482;49.154;8.254;2023-07-13T04:43:00;16.50;99.90
4934;DHT22;2482;49.154;8.254;2023-07-13T04:45:27;16.60;99.90
4934;DHT22;2482;49.154;8.254;2023-07-13T04:47:54;16.60;99.90
4934;DHT22;2482;49.154;8.254;2023-07-13T04:50:21;16.70;99.90
4934;DHT22;2482;49.154;8.254;2023-07-13T04:52:53;16.80;99.90
4934;DHT22;2482;49.154;8.254;2023-07-13T04:55:20;16.90;99.90
4934;DHT22;2482;49.154;8.254;2023-07-13T04:57:47;17.10;99.90
4934;DHT22;2482;49.154;8.254;2023-07-13T05:00:15;17.10;99.90
4934;DHT22;2482;49.154;8.254;2023-07-13T05:02:45;17.00;99.90
4934;DHT22;2482;49.154;8.254;2023-07-13T05:05:13;16.90;99.90
4934;DHT22;2482;49.154;8.254;2023-07-13T05:07:40;16.80;99.90
4934;DHT22;2482;49.154;8.254;2023-07-13T05:10:07;16.70;99.90
4934;DHT22;2482;49.154;8.254;2023-07-13T05:12:35;16.80;99.90
4934;DHT22;2482;49.154;8.254;2023-07-13T05:15:03;16.90;99.90
4934;DHT22;2482;49.154;8.254;2023-07-13T05:17:30;17.30;99.90
4934;DHT22;2482;49.154;8.254;2023-07-13T05:19:57;17.60;99.90
4934;DHT22;2482;49.154;8.254;2023-07-13T05:22:24;17.80;99.90
4934;DHT22;2482;49.154;8.254;2023-07-13T05:24:51;18.20;99.90
4934;DHT22;2482;49.154;8.254;2023-07-13T05:27:18;18.40;99.90
4934;DHT22;2482;49.154;8.254;2023-07-13T05:29:45;18.50;99.90
4934;DHT22;2482;49.154;8.254;2023-07-13T05:32:12;18.60;99.90
4934;DHT22;2482;49.154;8.254;2023-07-13T05:34:40;18.90;99.90
4934;DHT22;2482;49.154;8.254;2023-07-13T05:37:08;19.20;99.90
4934;DHT22;2482;49.154;8.254;2023-07-13T05:39:35;19.30;99.90
4934;DHT22;2482;49.154;8.254;2023-07-13T05:42:02;19.60;99.90
4934;DHT22;2482;49.154;8.254;2023-07-13T05:44:30;19.40;99.90
4934;DHT22;2482;49.154;8.254;2023-07-13T05:46:57;19.80;99.90
4934;DHT22;2482;49.154;8.254;2023-07-13T05:49:24;20.20;99.90
4934;DHT22;2482;49.154;8.254;2023-07-13T05:51:51;20.40;99.90
4934;DHT22;2482;49.154;8.254;2023-07-13T05:54:18;20.50;99.90
4934;DHT22;2482;49.154;8.254;2023-07-13T05:56:45;20.10;99.90
4934;DHT22;2482;49.154;8.254;2023-07-13T05:59:12;19.70;99.90
4934;DHT22;2482;49.154;8.254;2023-07-13T06:01:41;19.70;99.90
4934;DHT22;2482;49.154;8.254;2023-07-13T06:04:08;20.00;99.90
4934;DHT22;2482;49.154;8.254;2023-07-13T06:06:35;20.00;99.90
4934;DHT22;2482;49.154;8.254;2023-07-13T06:09:02;19.90;99.90
4934;DHT22;2482;49.154;8.254;2023-07-13T06:11:29;19.90;99.90
4934;DHT22;2482;49.154;8.254;2023-07-13T06:13:56;20.30;99.90
4934;DHT22;2482;49.154;8.254;2023-07-13T06:16:24;20.40;99.90
4934;DHT22;2482;49.154;8.254;2023-07-13T06:18:51;20.80;99.90
4934;DHT22;2482;49.154;8.254;2023-07-13T06:21:20;21.00;99.90
4934;DHT22;2482;49.154;8.254;2023-07-13T06:23:49;21.20;99.90
4934;DHT22;2482;49.154;8.254;2023-07-13T06:26:18;21.80;99.90
4934;DHT22;2482;49.154;8.254;2023-07-13T06:28:46;21.70;99.90
4934;DHT22;2482;49.154;8.254;2023-07-13T06:31:14;21.80;99.90
4934;DHT22;2482;49.154;8.254;2023-07-13T06:33:42;21.60;99.90
4934;DHT22;2482;49.154;8.254;2023-07-13T06:36:10;21.60;99.90
4934;DHT22;2482;49.154;8.254;2023-07-13T06:38:38;21.50;99.90
4934;DHT22;2482;49.154;8.254;2023-07-13T06:41:07;21.40;99.90
4934;DHT22;2482;49.154;8.254;2023-07-13T06:43:35;21.70;99.90
4934;DHT22;2482;49.154;8.254;2023-07-13T06:46:02;22.10;99.90
4934;DHT22;2482;49.154;8.254;2023-07-13T06:48:29;22.60;99.90
4934;DHT22;2482;49.154;8.254;2023-07-13T06:50:56;22.60;99.90
4934;DHT22;2482;49.154;8.254;2023-07-13T06:53:23;22.40;99.90
4934;DHT22;2482;49.154;8.254;2023-07-13T06:55:50;22.40;99.90
4934;DHT22;2482;49.154;8.254;2023-07-13T06:58:18;22.70;99.90
4934;DHT22;2482;49.154;8.254;2023-07-13T07:00:46;22.60;99.90
4934;DHT22;2482;49.154;8.254;2023-07-13T07:03:13;22.50;99.90
4934;DHT22;2482;49.154;8.254;2023-07-13T07:05:41;22.30;99.90
4934;DHT22;2482;49.154;8.254;2023-07-13T07:08:08;22.20;99.90
4934;DHT22;2482;49.154;8.254;2023-07-13T07:10:35;22.70;99.90
4934;DHT22;2482;49.154;8.254;2023-07-13T07:13:03;22.50;99.90
4934;DHT22;2482;49.154;8.254;2023-07-13T07:15:30;22.50;99.90
4934;DHT22;2482;49.154;8.254;2023-07-13T07:17:58;22.80;99.90
4934;DHT22;2482;49.154;8.254;2023-07-13T07:20:25;22.80;99.90
4934;DHT22;2482;49.154;8.254;2023-07-13T07:22:53;22.70;99.90
4934;DHT22;2482;49.154;8.254;2023-07-13T07:25:20;22.80;99.90
4934;DHT22;2482;49.154;8.254;2023-07-13T07:27:47;22.80;99.90
4934;DHT22;2482;49.154;8.254;2023-07-13T07:30:17;22.80;99.90
4934;DHT22;2482;49.154;8.254;2023-07-13T07:32:47;23.20;99.90
4934;DHT22;2482;49.154;8.254;2023-07-13T07:35:16;23.70;99.90
4934;DHT22;2482;49.154;8.254;2023-07-13T07:37:43;23.70;99.90
4934;DHT22;2482;49.154;8.254;2023-07-13T07:40:13;23.50;99.90
4934;DHT22;2482;49.154;8.254;2023-07-13T07:42:43;23.70;99.90
4934;DHT22;2482;49.154;8.254;2023-07-13T07:45:10;24.10;99.90
4934;DHT22;2482;49.154;8.254;2023-07-13T07:47:40;24.40;99.90
4934;DHT22;2482;49.154;8.254;2023-07-13T07:50:08;24.50;99.90
4934;DHT22;2482;49.154;8.254;2023-07-13T07:52:36;24.70;99.90
4934;DHT22;2482;49.154;8.254;2023-07-13T07:55:04;24.60;99.90
4934;DHT22;2482;49.154;8.254;2023-07-13T07:57:35;24.70;99.90
4934;DHT22;2482;49.154;8.254;2023-07-13T08:00:06;24.90;99.90
4934;DHT22;2482;49.154;8.254;2023-07-13T08:02:36;24.90;99.90
4934;DHT22;2482;49.154;8.254;2023-07-13T08:05:07;24.70;99.90
4934;DHT22;2482;49.154;8.254;2023-07-13T08:07:38;24.30;99.90
4934;DHT22;2482;49.154;8.254;2023-07-13T08:10:06;24.20;99.90
4934;DHT22;2482;49.154;8.254;2023-07-13T08:12:35;24.20;99.90
4934;DHT22;2482;49.154;8.254;2023-07-13T08:15:10;24.50;99.90
4934;DHT22;2482;49.154;8.254;2023-07-13T08:17:38;25.00;99.90
4934;DHT22;2482;49.154;8.254;2023-07-13T08:20:06;25.50;99.90
4934;DHT22;2482;49.154;8.254;2023-07-13T08:22:33;25.80;99.90
4934;DHT22;2482;49.154;8.254;2023-07-13T08:25:01;25.80;99.40
4934;DHT22;2482;49.154;8.254;2023-07-13T08:27:28;25.10;99.90
4934;DHT22;2482;49.154;8.254;2023-07-13T08:29:55;25.10;99.90
4934;DHT22;2482;49.154;8.254;2023-07-13T08:32:23;24.80;99.90
4934;DHT22;2482;49.154;8.254;2023-07-13T08:34:51;25.30;99.90
4934;DHT22;2482;49.154;8.254;2023-07-13T08:37:18;25.00;99.90
4934;DHT22;2482;49.154;8.254;2023-07-13T08:39:46;24.90;99.90
4934;DHT22;2482;49.154;8.254;2023-07-13T08:45:13;25.50;99.90
4934;DHT22;2482;49.154;8.254;2023-07-13T08:50:52;26.10;99.30
4934;DHT22;2482;49.154;8.254;2023-07-13T08:53:44;25.70;98.70
4934;DHT22;2482;49.154;8.254;2023-07-13T08:56:22;25.30;99.90
4934;DHT22;2482;49.154;8.254;2023-07-13T08:59:05;25.50;99.10
4934;DHT22;2482;49.154;8.254;2023-07-13T09:04:57;25.80;98.30
4934;DHT22;2482;49.154;8.254;2023-07-13T09:10:24;25.70;98.20
4934;DHT22;2482;49.154;8.254;2023-07-13T09:15:47;25.80;97.30
4934;DHT22;2482;49.154;8.254;2023-07-13T09:23:44;25.60;97.90
4934;DHT22;2482;49.154;8.254;2023-07-13T09:26:21;25.90;97.10
4934;DHT22;2482;49.154;8.254;2023-07-13T09:28:57;26.10;96.40
4934;DHT22;2482;49.154;8.254;2023-07-13T09:31:39;25.60;96.30
4934;DHT22;2482;49.154;8.254;2023-07-13T09:34:11;25.60;95.70
4934;DHT22;2482;49.154;8.254;2023-07-13T09:36:39;25.50;95.90
4934;DHT22;2482;49.154;8.254;2023-07-13T09:42:07;26.00;96.00
4934;DHT22;2482;49.154;8.254;2023-07-13T09:50:00;27.00;94.40
4934;DHT22;2482;49.154;8.254;2023-07-13T09:52:49;26.70;93.50
4934;DHT22;2482;49.154;8.254;2023-07-13T09:55:32;26.40;93.70
4934;DHT22;2482;49.154;8.254;2023-07-13T09:58:09;26.00;94.70
4934;DHT22;2482;49.154;8.254;2023-07-13T10:00:39;25.80;94.10
4934;DHT22;2482;49.154;8.254;2023-07-13T10:03:18;25.30;94.80
4934;DHT22;2482;49.154;8.254;2023-07-13T10:05:49;25.10;95.40
4934;DHT22;2482;49.154;8.254;2023-07-13T10:08:24;24.90;95.00
4934;DHT22;2482;49.154;8.254;2023-07-13T10:11:01;24.80;95.80
4934;DHT22;2482;49.154;8.254;2023-07-13T10:13:52;24.90;95.60
4934;DHT22;2482;49.154;8.254;2023-07-13T10:16:29;24.70;95.50
4934;DHT22;2482;49.154;8.254;2023-07-13T10:19:22;24.80;96.70
4934;DHT22;2482;49.154;8.254;2023-07-13T10:21:54;25.50;95.80
4934;DHT22;2482;49.154;8.254;2023-07-13T10:24:48;25.50;95.10
4934;DHT22;2482;49.154;8.254;2023-07-13T10:27:28;26.00;95.00
4934;DHT22;2482;49.154;8.254;2023-07-13T10:30:09;26.90;92.80
4934;DHT22;2482;49.154;8.254;2023-07-13T10:32:42;26.50;92.50
4934;DHT22;2482;49.154;8.254;2023-07-13T10:35:12;26.50;93.60
4934;DHT22;2482;49.154;8.254;2023-07-13T10:37:52;26.50;92.40
4934;DHT22;2482;49.154;8.254;2023-07-13T10:40:34;26.00;91.70
4934;DHT22;2482;49.154;8.254;2023-07-13T10:43:06;25.70;92.80
4934;DHT22;2482;49.154;8.254;2023-07-13T10:45:40;25.40;92.60
4934;DHT22;2482;49.154;8.254;2023-07-13T10:48:11;25.20;92.80
4934;DHT22;2482;49.154;8.254;2023-07-13T10:50:49;25.10;92.60
4934;DHT22;2482;49.154;8.254;2023-07-13T10:53:38;25.70;92.70
4934;DHT22;2482;49.154;8.254;2023-07-13T10:56:29;26.10;93.60
4934;DHT22;2482;49.154;8.254;2023-07-13T10:59:11;26.60;90.80
4934;DHT22;2482;49.154;8.254;2023-07-13T11:02:05;26.70;91.00
4934;DHT22;2482;49.154;8.254;2023-07-13T11:04:42;26.40;89.70
4934;DHT22;2482;49.154;8.254;2023-07-13T11:07:22;26.10;89.00
4934;DHT22;2482;49.154;8.254;2023-07-13T11:09:54;25.70;89.40
4934;DHT22;2482;49.154;8.254;2023-07-13T11:17:32;26.60;90.00
4934;DHT22;2482;49.154;8.254;2023-07-13T11:22:50;27.00;87.20
4934;DHT22;2482;49.154;8.254;2023-07-13T11:25:31;27.40;87.40
4934;DHT22;2482;49.154;8.254;2023-07-13T11:28:22;27.70;85.30
4934;DHT22;2482;49.154;8.254;2023-07-13T11:36:16;27.70;82.90
4934;DHT22;2482;49.154;8.254;2023-07-13T11:39:04;27.60;83.10
4934;DHT22;2482;49.154;8.254;2023-07-13T11:41:44;27.40;82.40
4934;DHT22;2482;49.154;8.254;2023-07-13T11:44:18;26.90;83.90
4934;DHT22;2482;49.154;8.254;2023-07-13T11:46:58;26.70;82.70
4934;DHT22;2482;49.154;8.254;2023-07-13T11:49:32;26.30;82.80
4934;DHT22;2482;49.154;8.254;2023-07-13T11:52:19;26.10;82.90
4934;DHT22;2482;49.154;8.254;2023-07-13T11:54:54;26.20;83.60
4934;DHT22;2482;49.154;8.254;2023-07-13T11:59:55;26.00;82.30
4934;DHT22;2482;49.154;8.254;2023-07-13T12:02:35;26.10;82.60
4934;DHT22;2482;49.154;8.254;2023-07-13T12:05:04;26.80;81.40
4934;DHT22;2482;49.154;8.254;2023-07-13T12:07:33;27.40;79.60
4934;DHT22;2482;49.154;8.254;2023-07-13T12:12:57;28.10;77.30
4934;DHT22;2482;49.154;8.254;2023-07-13T12:15:40;28.30;78.00
4934;DHT22;2482;49.154;8.254;2023-07-13T12:18:20;27.90;78.90
4934;DHT22;2482;49.154;8.254;2023-07-13T12:20:57;27.50;81.20
4934;DHT22;2482;49.154;8.254;2023-07-13T12:23:30;27.30;80.40
4934;DHT22;2482;49.154;8.254;2023-07-13T12:26:03;27.20;79.50
4934;DHT22;2482;49.154;8.254;2023-07-13T12:28:38;26.80;80.80
4934;DHT22;2482;49.154;8.254;2023-07-13T12:31:26;26.40;81.20
4934;DHT22;2482;49.154;8.254;2023-07-13T12:36:53;26.30;83.10
4934;DHT22;2482;49.154;8.254;2023-07-13T12:39:36;26.20;83.00
4934;DHT22;2482;49.154;8.254;2023-07-13T12:42:31;26.40;82.70
4934;DHT22;2482;49.154;8.254;2023-07-13T12:45:03;26.30;81.50
4934;DHT22;2482;49.154;8.254;2023-07-13T12:47:42;26.20;82.50
4934;DHT22;2482;49.154;8.254;2023-07-13T12:50:16;26.10;82.20
4934;DHT22;2482;49.154;8.254;2023-07-13T12:53:01;26.10;79.80
4934;DHT22;2482;49.154;8.254;2023-07-13T12:55:30;26.10;82.00
4934;DHT22;2482;49.154;8.254;2023-07-13T12:58:02;26.10;80.90
4934;DHT22;2482;49.154;8.254;2023-07-13T13:00:31;26.10;83.00
4934;DHT22;2482;49.154;8.254;2023-07-13T13:03:30;26.30;80.70
4934;DHT22;2482;49.154;8.254;2023-07-13T13:08:49;26.20;80.00
4934;DHT22;2482;49.154;8.254;2023-07-13T13:11:18;26.60;80.70
4934;DHT22;2482;49.154;8.254;2023-07-13T13:13:46;27.20;79.80
4934;DHT22;2482;49.154;8.254;2023-07-13T13:16:30;27.50;80.50
4934;DHT22;2482;49.154;8.254;2023-07-13T13:19:05;27.50;80.00
4934;DHT22;2482;49.154;8.254;2023-07-13T13:21:39;27.30;80.80
4934;DHT22;2482;49.154;8.254;2023-07-13T13:24:14;27.00;81.90
4934;DHT22;2482;49.154;8.254;2023-07-13T13:26:44;27.00;81.00
4934;DHT22;2482;49.154;8.254;2023-07-13T13:29:20;27.00;82.00
4934;DHT22;2482;49.154;8.254;2023-07-13T13:31:51;26.90;82.20
4934;DHT22;2482;49.154;8.254;2023-07-13T13:34:20;26.70;83.10
4934;DHT22;2482;49.154;8.254;2023-07-13T13:36:51;27.30;84.00
4934;DHT22;2482;49.154;8.254;2023-07-13T13:39:33;27.50;82.50
4934;DHT22;2482;49.154;8.254;2023-07-13T13:42:04;28.00;81.00
4934;DHT22;2482;49.154;8.254;2023-07-13T13:44:32;27.60;81.60
4934;DHT22;2482;49.154;8.254;2023-07-13T13:46:59;26.90;82.40
4934;DHT22;2482;49.154;8.254;2023-07-13T13:49:27;26.80;82.90
4934;DHT22;2482;49.154;8.254;2023-07-13T13:51:55;27.00;79.10
4934;DHT22;2482;49.154;8.254;2023-07-13T13:54:23;27.10;81.20
4934;DHT22;2482;49.154;8.254;2023-07-13T13:56:52;26.80;81.80
4934;DHT22;2482;49.154;8.254;2023-07-13T13:59:19;26.70;82.20
4934;DHT22;2482;49.154;8.254;2023-07-13T14:01:47;26.70;80.60
4934;DHT22;2482;49.154;8.254;2023-07-13T14:04:21;26.70;80.60
4934;DHT22;2482;49.154;8.254;2023-07-13T14:06:48;26.70;80.00
4934;DHT22;2482;49.154;8.254;2023-07-13T14:09:18;26.60;78.80
4934;DHT22;2482;49.154;8.254;2023-07-13T14:11:48;26.80;80.00
4934;DHT22;2482;49.154;8.254;2023-07-13T14:14:20;27.00;80.40
4934;DHT22;2482;49.154;8.254;2023-07-13T14:16:50;27.30;80.40
4934;DHT22;2482;49.154;8.254;2023-07-13T14:19:22;27.30;81.80
4934;DHT22;2482;49.154;8.254;2023-07-13T14:21:50;27.00;81.70
4934;DHT22;2482;49.154;8.254;2023-07-13T14:24:19;27.10;81.80
4934;DHT22;2482;49.154;8.254;2023-07-13T14:26:47;27.10;79.30
4934;DHT22;2482;49.154;8.254;2023-07-13T14:29:17;27.50;79.00
4934;DHT22;2482;49.154;8.254;2023-07-13T14:31:50;27.70;78.60
4934;DHT22;2482;49.154;8.254;2023-07-13T14:34:17;27.80;79.40
4934;DHT22;2482;49.154;8.254;2023-07-13T14:36:48;27.80;80.40
4934;DHT22;2482;49.154;8.254;2023-07-13T14:39:19;27.50;78.50
4934;DHT22;2482;49.154;8.254;2023-07-13T14:41:51;27.60;76.80
4934;DHT22;2482;49.154;8.254;2023-07-13T14:44:28;27.60;78.80
4934;DHT22;2482;49.154;8.254;2023-07-13T14:47:00;27.80;79.30
4934;DHT22;2482;49.154;8.254;2023-07-13T14:49:39;27.90;76.20
4934;DHT22;2482;49.154;8.254;2023-07-13T14:52:26;27.90;78.80
4934;DHT22;2482;49.154;8.254;2023-07-13T14:54:54;27.90;76.90
4934;DHT22;2482;49.154;8.254;2023-07-13T14:57:21;27.70;77.70
4934;DHT22;2482;49.154;8.254;2023-07-13T14:59:49;27.90;74.80
4934;DHT22;2482;49.154;8.254;2023-07-13T15:02:28;27.60;75.90
4934;DHT22;2482;49.154;8.254;2023-07-13T15:04:57;27.40;77.90
4934;DHT22;2482;49.154;8.254;2023-07-13T15:07:25;27.80;76.30
4934;DHT22;2482;49.154;8.254;2023-07-13T15:09:52;27.60;76.00
4934;DHT22;2482;49.154;8.254;2023-07-13T15:12:19;27.80;78.00
4934;DHT22;2482;49.154;8.254;2023-07-13T15:14:48;28.00;77.00
4934;DHT22;2482;49.154;8.254;2023-07-13T15:17:39;28.00;77.00
4934;DHT22;2482;49.154;8.254;2023-07-13T15:20:30;28.00;77.70
4934;DHT22;2482;49.154;8.254;2023-07-13T15:23:00;27.70;77.50
4934;DHT22;2482;49.154;8.254;2023-07-13T15:25:29;27.60;77.90
4934;DHT22;2482;49.154;8.254;2023-07-13T15:27:58;27.70;77.70
4934;DHT22;2482;49.154;8.254;2023-07-13T15:30:39;27.90;76.60
4934;DHT22;2482;49.154;8.254;2023-07-13T15:33:22;27.90;77.70
4934;DHT22;2482;49.154;8.254;2023-07-13T15:35:53;27.70;76.00
4934;DHT22;2482;49.154;8.254;2023-07-13T15:38:27;27.80;77.00
4934;DHT22;2482;49.154;8.254;2023-07-13T15:40:56;27.80;77.30
4934;DHT22;2482;49.154;8.254;2023-07-13T15:43:23;27.80;77.50
4934;DHT22;2482;49.154;8.254;2023-07-13T15:45:52;27.90;77.80
4934;DHT22;2482;49.154;8.254;2023-07-13T15:48:23;27.60;77.80
4934;DHT22;2482;49.154;8.254;2023-07-13T15:50:53;27.40;78.70
4934;DHT22;2482;49.154;8.254;2023-07-13T15:53:25;27.50;78.40
4934;DHT22;2482;49.154;8.254;2023-07-13T15:55:54;27.50;77.90
4934;DHT22;2482;49.154;8.254;2023-07-13T15:58:22;27.90;78.80
4934;DHT22;2482;49.154;8.254;2023-07-13T16:00:49;27.90;77.80
4934;DHT22;2482;49.154;8.254;2023-07-13T16:03:20;27.70;76.80
4934;DHT22;2482;49.154;8.254;2023-07-13T16:05:49;27.80;76.30
4934;DHT22;2482;49.154;8.254;2023-07-13T16:08:25;27.50;77.80
4934;DHT22;2482;49.154;8.254;2023-07-13T16:10:55;27.20;77.70
4934;DHT22;2482;49.154;8.254;2023-07-13T16:13:23;27.20;77.70
4934;DHT22;2482;49.154;8.254;2023-07-13T16:15:53;27.10;78.70
4934;DHT22;2482;49.154;8.254;2023-07-13T16:18:23;27.20;78.90
4934;DHT22;2482;49.154;8.254;2023-07-13T16:20:50;27.10;78.40
4934;DHT22;2482;49.154;8.254;2023-07-13T16:23:18;27.10;78.90
4934;DHT22;2482;49.154;8.254;2023-07-13T16:25:45;27.10;79.00
4934;DHT22;2482;49.154;8.254;2023-07-13T16:28:15;27.00;80.00
4934;DHT22;2482;49.154;8.254;2023-07-13T16:30:42;26.90;79.60
4934;DHT22;2482;49.154;8.254;2023-07-13T16:33:10;27.10;78.90
4934;DHT22;2482;49.154;8.254;2023-07-13T16:35:40;27.10;78.00
4934;DHT22;2482;49.154;8.254;2023-07-13T16:38:19;27.10;77.20
4934;DHT22;2482;49.154;8.254;2023-07-13T16:40:47;27.00;78.00
4934;DHT22;2482;49.154;8.254;2023-07-13T16:43:16;26.90;78.20
4934;DHT22;2482;49.154;8.254;2023-07-13T16:45:49;26.60;79.60
4934;DHT22;2482;49.154;8.254;2023-07-13T16:48:20;26.70;79.70
4934;DHT22;2482;49.154;8.254;2023-07-13T16:50:57;26.90;76.40
4934;DHT22;2482;49.154;8.254;2023-07-13T16:53:29;27.00;78.70
4934;DHT22;2482;49.154;8.254;2023-07-13T16:56:00;26.90;78.00
4934;DHT22;2482;49.154;8.254;2023-07-13T16:58:30;27.00;77.80
4934;DHT22;2482;49.154;8.254;2023-07-13T17:00:59;27.30;77.30
4934;DHT22;2482;49.154;8.254;2023-07-13T17:03:30;27.40;78.20
4934;DHT22;2482;49.154;8.254;2023-07-13T17:06:02;27.40;75.80
4934;DHT22;2482;49.154;8.254;2023-07-13T17:08:45;27.40;77.50
4934;DHT22;2482;49.154;8.254;2023-07-13T17:11:12;27.40;78.40
4934;DHT22;2482;49.154;8.254;2023-07-13T17:13:39;27.30;76.70
4934;DHT22;2482;49.154;8.254;2023-07-13T17:16:09;27.20;76.90
4934;DHT22;2482;49.154;8.254;2023-07-13T17:18:37;27.30;76.00
4934;DHT22;2482;49.154;8.254;2023-07-13T17:21:07;27.30;76.10
4934;DHT22;2482;49.154;8.254;2023-07-13T17:23:36;27.40;75.20
4934;DHT22;2482;49.154;8.254;2023-07-13T17:26:04;27.40;75.90